Time;durP1;ratioP1;P1;durP2;ratioP2;P2;SDS_P1;SDS_P2;PMS_P1;PMS_P2;Temp;Humidity;BMP_temperature;BMP_pressure;BME280_temperature;BME280_humidity;BME280_pressure;Samples;Min_cycle;Max_cycle;Signal;HPM_P1;HPM_P2
2024/01/10 00:00:08;;;;;;;19.10;11.20;;;-4.20;94.00;;;;;;5072314;28;20236;-61
2024/01/10 00:02:35;;;;;;;17.00;11.90;;;-4.20;93.80;;;;;;5072263;28;20202;-58
2024/01/10 00:05:03;;;;;;;19.60;12.48;;;-4.20;93.90;;;;;;5058349;28;20296;-58
2024/01/10 00:07:30;;;;;;;17.63;10.82;;;-4.20;93.00;;;;;;5065544;28;20295;-59
2024/01/10 00:09:59;;;;;;;12.38;10.68;;;-4.20;92.80;;;;;;5055326;28;20222;-60
2024/01/10 00:12:33;;;;;;;17.80;10.52;;;-4.20;93.40;;;;;;5070914;28;20621;-60
2024/01/10 00:15:00;;;;;;;14.05;9.65;;;-4.20;93.20;;;;;;5072237;28;20208;-59
2024/01/10 00:17:26;;;;;;;11.75;9.82;;;-4.10;92.20;;;;;;5054351;28;20230;-60
2024/01/10 00:19:53;;;;;;;18.60;11.80;;;-4.10;92.30;;;;;;5064491;28;20230;-60
2024/01/10 00:22:20;;;;;;;17.63;11.05;;;-4.00;92.80;;;;;;5055454;28;20644;-61
2024/01/10 00:24:47;;;;;;;20.00;13.55;;;-4.10;92.20;;;;;;5067021;28;20202;-61
2024/01/10 00:27:14;;;;;;;16.65;9.88;;;-4.00;93.00;;;;;;5064057;28;20212;-60
2024/01/10 00:29:43;;;;;;;18.15;11.57;;;-4.00;93.10;;;;;;5061503;28;20228;-60
2024/01/10 00:32:10;;;;;;;14.48;11.02;;;-4.00;93.40;;;;;;5065428;28;20206;-59
2024/01/10 00:34:36;;;;;;;16.02;11.05;;;-4.10;92.90;;;;;;5063191;28;20237;-59
2024/01/10 00:37:04;;;;;;;14.00;10.20;;;-4.10;93.00;;;;;;5070406;28;20202;-59
2024/01/10 00:39:30;;;;;;;16.75;11.60;;;-4.10;93.10;;;;;;5051590;28;20235;-60
2024/01/10 00:41:57;;;;;;;17.98;12.13;;;-4.10;93.80;;;;;;5071409;28;20202;-59
2024/01/10 00:44:24;;;;;;;13.98;10.57;;;-4.10;93.90;;;;;;5071457;28;20202;-60
2024/01/10 00:46:53;;;;;;;14.45;10.35;;;-4.20;93.20;;;;;;5071540;28;20205;-58
2024/01/10 00:49:19;;;;;;;14.80;9.38;;;-4.10;93.00;;;;;;5055172;28;20689;-60
2024/01/10 00:51:47;;;;;;;16.00;11.75;;;-4.10;93.10;;;;;;5071472;28;20202;-57
2024/01/10 00:54:14;;;;;;;17.83;11.93;;;-4.10;93.70;;;;;;5071259;28;20303;-60
2024/01/10 00:56:41;;;;;;;13.55;9.82;;;-4.10;94.00;;;;;;5059182;28;20228;-60
2024/01/10 00:59:07;;;;;;;13.57;10.90;;;-4.20;93.70;;;;;;5065612;28;20668;-60
2024/01/10 01:01:34;;;;;;;14.70;11.02;;;-4.20;94.10;;;;;;5071106;28;20293;-61
2024/01/10 01:04:03;;;;;;;14.27;11.23;;;-4.20;94.40;;;;;;5071192;28;20201;-60
2024/01/10 01:06:29;;;;;;;14.55;10.90;;;-4.20;94.10;;;;;;5066887;28;20217;-57
2024/01/10 01:08:56;;;;;;;16.35;10.15;;;-4.30;94.20;;;;;;5063584;28;20236;-58
2024/01/10 01:11:23;;;;;;;12.15;10.95;;;-4.30;94.80;;;;;;5071123;28;20212;-60
2024/01/10 01:13:50;;;;;;;15.02;9.95;;;-4.40;95.00;;;;;;5070129;28;20227;-59
2024/01/10 01:16:17;;;;;;;17.80;11.77;;;-4.40;95.00;;;;;;5071382;28;20226;-59
2024/01/10 01:18:45;;;;;;;17.85;10.20;;;-4.50;95.00;;;;;;5079964;22;20234;-62
2024/01/10 01:21:13;;;;;;;18.50;11.60;;;-4.50;95.40;;;;;;5050659;28;20236;-63
2024/01/10 01:23:40;;;;;;;14.18;9.93;;;-4.60;96.00;;;;;;5051051;28;20199;-63
2024/01/10 01:26:07;;;;;;;14.95;10.82;;;-4.60;95.80;;;;;;5050875;28;20297;-63
2024/01/10 01:28:33;;;;;;;11.88;10.05;;;-4.70;96.00;;;;;;5051288;28;20205;-63
2024/01/10 01:31:00;;;;;;;11.60;9.88;;;-4.70;96.20;;;;;;5054862;28;20293;-63
2024/01/10 01:33:27;;;;;;;16.67;9.85;;;-4.70;96.20;;;;;;5054788;28;20222;-63
2024/01/10 01:35:54;;;;;;;18.10;11.30;;;-4.80;96.20;;;;;;5055001;28;20206;-63
2024/01/10 01:38:22;;;;;;;15.57;11.98;;;-4.80;96.90;;;;;;5054895;28;20294;-61
2024/01/10 01:40:49;;;;;;;21.45;9.70;;;-4.90;96.80;;;;;;5054913;28;20230;-63
2024/01/10 01:43:24;;;;;;;14.70;10.60;;;-4.90;96.90;;;;;;5054735;28;20206;-62
2024/01/10 01:45:53;;;;;;;22.05;11.77;;;-5.00;97.30;;;;;;5054685;28;20651;-62
2024/01/10 01:48:21;;;;;;;11.30;9.68;;;-5.00;97.70;;;;;;5054120;28;20202;-63
2024/01/10 01:50:49;;;;;;;14.75;9.70;;;-5.00;97.70;;;;;;5058186;28;20230;-63
2024/01/10 01:53:17;;;;;;;17.63;10.27;;;-5.00;97.80;;;;;;5054707;28;20209;-62
2024/01/10 01:55:46;;;;;;;17.92;11.13;;;-5.10;98.10;;;;;;5054381;28;20211;-62
2024/01/10 01:58:13;;;;;;;15.77;10.20;;;-5.10;98.40;;;;;;5054514;28;20202;-63
2024/01/10 02:00:41;;;;;;;12.35;10.18;;;-5.10;98.50;;;;;;5054570;28;20656;-63
2024/01/10 02:03:10;;;;;;;18.15;11.27;;;-5.10;98.80;;;;;;5054599;28;20209;-62
2024/01/10 02:05:37;;;;;;;11.00;9.23;;;-5.10;98.50;;;;;;5054567;28;20210;-63
2024/01/10 02:08:05;;;;;;;18.38;10.27;;;-5.10;98.30;;;;;;5054525;28;20210;-63
2024/01/10 02:10:32;;;;;;;15.85;10.30;;;-5.20;98.60;;;;;;5054240;28;20712;-63
2024/01/10 02:13:00;;;;;;;11.18;9.35;;;-5.20;98.30;;;;;;5054365;28;20293;-62
2024/01/10 02:15:27;;;;;;;16.30;11.77;;;-5.20;98.40;;;;;;5054274;28;20313;-63
2024/01/10 02:17:54;;;;;;;12.93;10.18;;;-5.20;98.60;;;;;;5054179;28;20217;-61
2024/01/10 02:20:21;;;;;;;11.35;8.35;;;-5.20;98.90;;;;;;5053759;28;20292;-62
2024/01/10 02:22:50;;;;;;;17.23;9.95;;;-5.20;99.20;;;;;;5054269;28;20215;-61
2024/01/10 02:25:18;;;;;;;16.45;11.00;;;-5.20;99.80;;;;;;5053704;28;20194;-63
2024/01/10 02:27:45;;;;;;;20.95;11.00;;;-5.20;99.50;;;;;;5053945;28;20301;-62
2024/01/10 02:30:11;;;;;;;9.75;8.70;;;-5.20;99.50;;;;;;5053929;28;20226;-63
2024/01/10 02:32:38;;;;;;;12.65;9.05;;;-5.20;99.90;;;;;;5054172;28;20198;-63
2024/01/10 02:35:06;;;;;;;11.07;10.00;;;-5.20;99.50;;;;;;5053852;28;20251;-63
2024/01/10 02:37:33;;;;;;;12.73;10.40;;;-5.20;99.70;;;;;;5053918;28;20242;-62
2024/01/10 02:40:00;;;;;;;15.52;9.65;;;-5.20;99.90;;;;;;5052963;28;20226;-63
2024/01/10 02:42:30;;;;;;;15.82;9.82;;;-5.20;99.90;;;;;;5054202;28;20213;-62
2024/01/10 02:44:56;;;;;;;9.02;8.05;;;-5.20;99.90;;;;;;5054069;28;20223;-62
2024/01/10 02:47:23;;;;;;;15.18;9.82;;;-5.20;99.90;;;;;;5053844;28;20301;-63
2024/01/10 02:49:50;;;;;;;12.43;8.63;;;-5.20;99.90;;;;;;5052979;28;20321;-62
2024/01/10 02:52:19;;;;;;;10.05;8.65;;;-5.20;99.90;;;;;;5052426;28;20293;-63
2024/01/10 02:54:46;;;;;;;15.43;11.25;;;-5.20;99.90;;;;;;5053284;28;20238;-63
2024/01/10 02:57:13;;;;;;;12.25;9.55;;;-5.20;99.90;;;;;;5053552;28;20298;-63
2024/01/10 02:59:41;;;;;;;11.77;7.93;;;-5.20;99.90;;;;;;5053010;28;20333;-61
2024/01/10 03:02:08;;;;;;;11.50;9.25;;;-5.20;99.90;;;;;;5053456;28;20206;-63
2024/01/10 03:04:35;;;;;;;14.23;10.80;;;-5.20;99.90;;;;;;5040644;28;20206;-63
2024/01/10 03:07:02;;;;;;;14.07;9.65;;;-5.30;99.90;;;;;;5052982;28;20206;-63
2024/01/10 03:09:29;;;;;;;11.45;8.90;;;-5.30;99.90;;;;;;5053024;28;20898;-62
2024/01/10 03:11:55;;;;;;;13.75;8.77;;;-5.30;99.90;;;;;;5052284;28;20305;-62
2024/01/10 03:14:23;;;;;;;11.20;8.55;;;-5.30;99.90;;;;;;5052355;28;20228;-62
2024/01/10 03:16:51;;;;;;;13.23;9.68;;;-5.30;99.90;;;;;;5053409;28;20202;-62
2024/01/10 03:19:18;;;;;;;9.70;8.73;;;-5.30;99.90;;;;;;5053004;28;20238;-63
2024/01/10 03:21:44;;;;;;;16.80;9.57;;;-5.40;99.90;;;;;;5053355;28;20305;-62
2024/01/10 03:24:11;;;;;;;14.27;8.38;;;-5.40;99.90;;;;;;5053526;28;20208;-63
2024/01/10 03:26:38;;;;;;;10.63;8.45;;;-5.30;99.90;;;;;;5053362;28;20206;-62
2024/01/10 03:29:05;;;;;;;17.10;10.38;;;-5.30;99.90;;;;;;5053013;28;20330;-62
2024/01/10 03:31:32;;;;;;;17.45;9.15;;;-5.40;99.90;;;;;;5052955;28;20219;-62
2024/01/10 03:34:00;;;;;;;15.95;8.80;;;-5.40;99.90;;;;;;5052984;28;20629;-61
2024/01/10 03:36:27;;;;;;;15.65;10.50;;;-5.40;99.90;;;;;;5053040;28;20213;-62
2024/01/10 03:38:54;;;;;;;11.40;9.00;;;-5.40;99.90;;;;;;5053028;28;20226;-62
2024/01/10 03:41:22;;;;;;;16.85;10.43;;;-5.40;99.90;;;;;;5052843;28;20301;-62
2024/01/10 03:43:50;;;;;;;13.35;9.10;;;-5.40;99.90;;;;;;5053089;28;20333;-62
2024/01/10 03:46:17;;;;;;;16.27;9.45;;;-5.40;99.90;;;;;;5052873;28;20229;-63
2024/01/10 03:48:48;;;;;;;12.05;10.52;;;-5.50;99.90;;;;;;5052617;28;20220;-62
2024/01/10 03:51:15;;;;;;;13.38;9.02;;;-5.50;99.90;;;;;;5052197;28;20595;-62
2024/01/10 03:53:42;;;;;;;14.73;9.95;;;-5.50;99.90;;;;;;5052807;28;20264;-63
2024/01/10 03:56:10;;;;;;;14.60;9.48;;;-5.50;99.90;;;;;;5052722;28;20210;-63
2024/01/10 03:58:37;;;;;;;13.02;8.60;;;-5.60;99.90;;;;;;5052545;28;20210;-63
2024/01/10 04:01:06;;;;;;;18.35;9.38;;;-5.60;99.90;;;;;;5052395;28;20737;-63
2024/01/10 04:03:33;;;;;;;9.20;8.30;;;-5.60;99.90;;;;;;5052756;28;20202;-63
2024/01/10 04:06:00;;;;;;;17.88;9.60;;;-5.60;99.90;;;;;;5052643;28;20293;-63
2024/01/10 04:08:28;;;;;;;11.68;8.40;;;-5.70;99.90;;;;;;5052498;28;20298;-63
2024/01/10 04:10:55;;;;;;;14.32;9.65;;;-5.70;99.90;;;;;;5052307;28;20206;-63
2024/01/10 04:13:22;;;;;;;13.27;9.25;;;-5.70;99.90;;;;;;5052435;28;20210;-63
2024/01/10 04:15:49;;;;;;;15.07;9.93;;;-5.80;99.90;;;;;;5051379;28;20240;-63
2024/01/10 04:18:15;;;;;;;9.30;8.27;;;-5.80;99.90;;;;;;5051867;28;20641;-62
2024/01/10 04:20:43;;;;;;;10.38;9.10;;;-5.80;99.90;;;;;;5051873;28;20623;-62
2024/01/10 04:23:10;;;;;;;9.95;8.95;;;-5.80;99.90;;;;;;5052321;28;20233;-62
2024/01/10 04:25:39;;;;;;;11.82;9.48;;;-5.80;99.90;;;;;;5052174;28;20289;-63
2024/01/10 04:28:07;;;;;;;16.67;7.95;;;-5.80;99.90;;;;;;5051981;28;20221;-62
2024/01/10 04:30:33;;;;;;;14.38;8.70;;;-5.80;99.90;;;;;;5051722;28;20226;-63
2024/01/10 04:33:00;;;;;;;14.40;9.50;;;-5.80;99.90;;;;;;5051945;28;20297;-62
2024/01/10 04:35:27;;;;;;;13.90;9.10;;;-5.90;99.90;;;;;;5052067;28;20259;-61
2024/01/10 04:37:54;;;;;;;13.30;8.30;;;-5.90;99.90;;;;;;5052057;28;20596;-62
2024/01/10 04:40:21;;;;;;;14.40;8.18;;;-5.90;99.90;;;;;;5051588;28;20222;-63
2024/01/10 04:42:49;;;;;;;19.20;11.50;;;-5.90;99.90;;;;;;5051722;28;20740;-62
2024/01/10 04:45:16;;;;;;;10.82;7.82;;;-5.90;99.90;;;;;;5051734;28;20210;-62
2024/01/10 04:47:44;;;;;;;18.08;9.32;;;-5.90;99.90;;;;;;5051704;28;20676;-62
2024/01/10 04:50:11;;;;;;;16.15;8.82;;;-5.90;99.90;;;;;;5051671;28;20222;-62
2024/01/10 04:52:38;;;;;;;12.77;9.98;;;-5.90;99.90;;;;;;5051887;28;20783;-62
2024/01/10 04:55:07;;;;;;;14.60;10.75;;;-5.90;99.90;;;;;;5051606;28;20230;-62
2024/01/10 04:57:34;;;;;;;11.43;9.25;;;-5.90;99.90;;;;;;5051555;28;20560;-63
2024/01/10 05:00:03;;;;;;;15.43;10.00;;;-6.00;99.90;;;;;;5051594;28;20237;-62
2024/01/10 05:02:30;;;;;;;15.13;9.45;;;-6.00;99.90;;;;;;5051773;28;20230;-62
2024/01/10 05:04:57;;;;;;;15.95;11.40;;;-6.00;99.90;;;;;;5051496;28;20206;-62
2024/01/10 05:07:23;;;;;;;14.27;9.63;;;-6.00;99.90;;;;;;5051446;28;20695;-62
2024/01/10 05:09:50;;;;;;;12.15;10.40;;;-6.00;99.90;;;;;;5051249;28;20257;-62
2024/01/10 05:12:17;;;;;;;15.02;8.32;;;-6.00;99.90;;;;;;5051337;28;20216;-62
2024/01/10 05:14:44;;;;;;;13.23;6.95;;;-6.00;99.90;;;;;;5051629;28;20313;-61
2024/01/10 05:17:12;;;;;;;21.42;9.60;;;-6.00;99.90;;;;;;5051512;28;20618;-62
2024/01/10 05:19:39;;;;;;;15.23;9.93;;;-6.00;99.90;;;;;;5051152;28;20245;-62
2024/01/10 05:22:06;;;;;;;16.33;9.25;;;-6.10;99.90;;;;;;5051538;28;20297;-63
2024/01/10 05:24:33;;;;;;;14.25;7.53;;;-6.10;99.90;;;;;;5051153;28;20213;-63
2024/01/10 05:27:00;;;;;;;13.05;8.65;;;-6.10;99.90;;;;;;5051608;28;20584;-63
2024/01/10 05:29:27;;;;;;;20.13;9.65;;;-6.10;99.90;;;;;;5051047;28;20226;-63
2024/01/10 05:31:54;;;;;;;13.57;9.30;;;-6.10;99.90;;;;;;5051525;28;20210;-62
2024/01/10 05:34:22;;;;;;;11.23;10.00;;;-6.10;99.90;;;;;;5051231;28;20297;-63
2024/01/10 05:36:49;;;;;;;10.95;8.93;;;-6.10;99.90;;;;;;5051215;28;20217;-62
2024/01/10 05:39:16;;;;;;;15.02;8.27;;;-6.10;99.90;;;;;;5050760;28;20284;-63
2024/01/10 05:41:44;;;;;;;12.90;9.18;;;-6.10;99.90;;;;;;5051139;28;20210;-63
2024/01/10 05:44:11;;;;;;;12.50;9.75;;;-6.10;99.90;;;;;;5051209;28;20209;-63
2024/01/10 05:46:38;;;;;;;9.85;7.18;;;-6.20;99.90;;;;;;5051268;28;20298;-63
2024/01/10 05:49:05;;;;;;;12.23;9.07;;;-6.20;99.90;;;;;;5051016;28;20234;-63
2024/01/10 05:51:33;;;;;;;11.65;7.53;;;-6.20;99.90;;;;;;5050991;28;20612;-63
2024/01/10 05:54:00;;;;;;;13.52;8.10;;;-6.20;99.90;;;;;;5050951;28;20213;-63
2024/01/10 05:56:28;;;;;;;11.32;9.77;;;-6.20;99.90;;;;;;5051164;28;20319;-63
2024/01/10 05:58:54;;;;;;;16.90;11.45;;;-6.20;99.90;;;;;;5050890;28;20227;-63
2024/01/10 06:01:21;;;;;;;14.52;10.75;;;-6.20;99.90;;;;;;5050878;28;20293;-63
2024/01/10 06:03:48;;;;;;;12.07;10.30;;;-6.20;99.90;;;;;;5051020;28;20293;-63
2024/01/10 06:06:15;;;;;;;14.10;8.50;;;-6.20;99.90;;;;;;5050749;28;20221;-63
2024/01/10 06:08:43;;;;;;;11.88;10.57;;;-6.20;99.90;;;;;;5050943;28;20207;-63
2024/01/10 06:11:11;;;;;;;14.13;8.40;;;-6.20;99.90;;;;;;5050616;28;20213;-63
2024/01/10 06:13:38;;;;;;;11.77;7.68;;;-6.20;99.90;;;;;;5050926;28;20717;-63
2024/01/10 06:16:05;;;;;;;11.32;9.02;;;-6.20;99.90;;;;;;5053670;28;20326;-63
2024/01/10 06:18:32;;;;;;;14.65;8.40;;;-6.20;99.90;;;;;;5054327;28;20203;-63
2024/01/10 06:20:59;;;;;;;10.57;9.68;;;-6.20;99.90;;;;;;5054206;28;20206;-63
2024/01/10 06:23:25;;;;;;;11.13;8.65;;;-6.20;99.90;;;;;;5054601;28;20232;-63
2024/01/10 06:25:54;;;;;;;18.38;12.00;;;-6.30;99.90;;;;;;5054148;28;20212;-63
2024/01/10 06:28:21;;;;;;;14.68;7.97;;;-6.30;99.90;;;;;;5053148;28;20211;-63
2024/01/10 06:30:50;;;;;;;14.32;8.20;;;-6.30;99.90;;;;;;5054081;28;20257;-63
2024/01/10 06:33:17;;;;;;;10.55;7.93;;;-6.30;99.90;;;;;;5054122;28;20676;-63
2024/01/10 06:35:44;;;;;;;14.65;10.18;;;-6.30;99.90;;;;;;5054188;28;20603;-63
2024/01/10 06:38:11;;;;;;;15.15;9.80;;;-6.30;99.90;;;;;;5054248;28;20301;-63
2024/01/10 06:40:38;;;;;;;12.05;9.73;;;-6.30;99.90;;;;;;5053876;28;20249;-63
2024/01/10 06:43:08;;;;;;;11.57;8.40;;;-6.40;99.90;;;;;;5054156;28;20206;-63
2024/01/10 06:45:35;;;;;;;13.18;8.48;;;-6.40;99.90;;;;;;5053986;28;20202;-63
2024/01/10 06:48:02;;;;;;;10.45;8.75;;;-6.40;99.90;;;;;;5053791;28;20213;-63
2024/01/10 06:50:30;;;;;;;9.50;8.30;;;-6.40;99.90;;;;;;5053945;28;20633;-63
2024/01/10 06:52:57;;;;;;;13.95;9.68;;;-6.40;99.90;;;;;;5054045;28;20639;-63
2024/01/10 06:55:25;;;;;;;14.48;9.30;;;-6.40;99.90;;;;;;5053868;28;20222;-63
2024/01/10 06:57:54;;;;;;;12.52;9.57;;;-6.40;99.90;;;;;;5053850;28;20633;-63
2024/01/10 07:00:22;;;;;;;16.02;9.55;;;-6.40;99.90;;;;;;5053485;28;20230;-63
2024/01/10 07:02:49;;;;;;;9.65;7.65;;;-6.40;99.90;;;;;;5053795;28;20646;-63
2024/01/10 07:05:16;;;;;;;11.80;9.60;;;-6.50;99.90;;;;;;5053497;28;20700;-63
2024/01/10 07:07:43;;;;;;;13.35;8.70;;;-6.50;99.90;;;;;;5053383;28;20662;-63
2024/01/10 07:10:11;;;;;;;11.73;7.65;;;-6.50;99.90;;;;;;5052930;28;20322;-63
2024/01/10 07:12:38;;;;;;;11.73;8.88;;;-6.50;99.90;;;;;;5053537;28;20213;-63
2024/01/10 07:15:06;;;;;;;13.00;8.80;;;-6.50;99.90;;;;;;5053174;28;20229;-63
2024/01/10 07:17:35;;;;;;;14.00;7.57;;;-6.50;99.90;;;;;;5053278;28;20238;-63
2024/01/10 07:20:02;;;;;;;10.32;8.20;;;-6.50;99.90;;;;;;5085126;22;20237;-61
2024/01/10 07:22:29;;;;;;;13.35;9.55;;;-6.50;99.90;;;;;;5073890;28;20233;-60
2024/01/10 07:24:56;;;;;;;13.80;8.80;;;-6.50;99.90;;;;;;5073811;28;20772;-59
2024/01/10 07:27:24;;;;;;;10.20;7.68;;;-6.50;99.90;;;;;;5072592;28;20209;-60
2024/01/10 07:29:51;;;;;;;8.93;8.02;;;-6.50;99.90;;;;;;5067189;28;20695;-59
2024/01/10 07:32:19;;;;;;;9.48;7.25;;;-6.50;99.90;;;;;;5053719;28;20207;-60
2024/01/10 07:34:47;;;;;;;16.58;9.77;;;-6.50;99.90;;;;;;5053637;28;20214;-60
2024/01/10 07:37:16;;;;;;;15.45;10.95;;;-6.40;99.90;;;;;;5053209;28;20198;-58
2024/01/10 07:39:43;;;;;;;10.50;9.48;;;-6.40;99.90;;;;;;5058230;28;20253;-60
2024/01/10 07:42:10;;;;;;;16.30;9.32;;;-6.40;99.90;;;;;;5064609;28;20202;-60
2024/01/10 07:44:37;;;;;;;12.50;8.50;;;-6.40;99.90;;;;;;5073252;28;20206;-60
2024/01/10 07:47:04;;;;;;;11.65;9.02;;;-6.40;99.90;;;;;;5073102;28;20259;-59
2024/01/10 07:49:32;;;;;;;14.32;10.18;;;-6.30;99.90;;;;;;5072629;28;20323;-59
2024/01/10 07:52:00;;;;;;;11.02;8.52;;;-6.30;99.90;;;;;;5072951;28;20598;-58
2024/01/10 07:54:27;;;;;;;11.20;10.02;;;-6.30;99.90;;;;;;5072545;28;20279;-58
2024/01/10 07:56:54;;;;;;;13.77;8.82;;;-6.30;99.90;;;;;;5072785;28;20225;-59
2024/01/10 07:59:21;;;;;;;13.13;9.75;;;-6.20;99.90;;;;;;5072493;28;20221;-60
2024/01/10 08:01:58;;;;;;;15.98;9.57;;;-6.20;99.90;;;;;;5072885;28;20306;-60
2024/01/10 08:04:25;;;;;;;18.02;9.48;;;-6.10;99.90;;;;;;5072701;28;20644;-60
2024/01/10 08:06:52;;;;;;;17.88;11.00;;;-6.10;99.90;;;;;;5072530;28;20247;-59
2024/01/10 08:09:20;;;;;;;14.85;9.52;;;-6.10;99.90;;;;;;5072489;28;20265;-60
2024/01/10 08:11:47;;;;;;;17.40;9.77;;;-6.10;99.90;;;;;;5072399;28;20292;-59
2024/01/10 08:14:15;;;;;;;22.52;9.52;;;-6.00;99.90;;;;;;5068242;28;20296;-59
2024/01/10 08:16:42;;;;;;;10.35;7.90;;;-6.00;99.90;;;;;;5055667;28;20792;-60
2024/01/10 08:19:09;;;;;;;12.35;10.57;;;-5.90;99.90;;;;;;5051838;28;20724;-59
2024/01/10 08:21:36;;;;;;;11.00;9.52;;;-5.90;99.90;;;;;;5052287;28;20210;-60
2024/01/10 08:24:04;;;;;;;15.45;10.40;;;-5.80;99.90;;;;;;5052344;28;20293;-61
2024/01/10 08:26:33;;;;;;;14.23;8.98;;;-5.80;99.90;;;;;;5052348;28;20255;-57
2024/01/10 08:28:59;;;;;;;15.32;10.52;;;-5.80;99.90;;;;;;5052217;28;20297;-59
2024/01/10 08:31:26;;;;;;;14.00;10.35;;;-5.70;99.90;;;;;;5052088;28;20297;-59
2024/01/10 08:33:53;;;;;;;18.20;12.55;;;-5.70;99.90;;;;;;5052069;28;20210;-59
2024/01/10 08:36:21;;;;;;;14.07;9.65;;;-5.60;99.90;;;;;;5052271;28;20230;-59
2024/01/10 08:38:48;;;;;;;17.13;9.25;;;-5.50;99.90;;;;;;5052084;28;20211;-59
2024/01/10 08:41:15;;;;;;;14.05;10.45;;;-5.50;99.90;;;;;;5051663;28;20213;-60
2024/01/10 08:43:43;;;;;;;11.60;9.48;;;-5.40;99.90;;;;;;5048510;28;20209;-58
2024/01/10 08:46:10;;;;;;;18.15;12.85;;;-5.40;99.90;;;;;;5048470;28;20195;-58
2024/01/10 08:48:37;;;;;;;12.77;10.00;;;-5.30;99.90;;;;;;5050774;28;20214;-59
2024/01/10 08:51:05;;;;;;;20.52;11.05;;;-5.30;99.90;;;;;;5047436;28;20310;-58
2024/01/10 08:53:32;;;;;;;15.93;10.70;;;-5.20;99.90;;;;;;5040567;28;20399;-58
2024/01/10 08:55:59;;;;;;;12.63;10.23;;;-5.10;99.90;;;;;;5031601;28;20317;-60
2024/01/10 08:58:26;;;;;;;16.80;12.25;;;-5.00;99.90;;;;;;5031750;28;20210;-56
2024/01/10 09:00:54;;;;;;;17.33;11.38;;;-4.90;99.90;;;;;;5059349;28;20704;-59
2024/01/10 09:03:21;;;;;;;18.60;10.90;;;-4.90;99.90;;;;;;5053227;28;20206;-60
2024/01/10 09:05:48;;;;;;;16.00;10.95;;;-4.80;99.90;;;;;;5051118;28;20202;-59
2024/01/10 09:08:15;;;;;;;22.33;11.25;;;-4.70;99.90;;;;;;5051585;28;20207;-58
2024/01/10 09:10:42;;;;;;;14.57;10.00;;;-4.60;99.90;;;;;;5050909;28;20226;-60
2024/01/10 09:13:10;;;;;;;15.45;10.30;;;-4.50;99.90;;;;;;5050886;28;20213;-60
2024/01/10 09:15:36;;;;;;;14.95;10.68;;;-4.40;99.90;;;;;;5059334;28;20215;-58
2024/01/10 09:18:05;;;;;;;14.00;11.10;;;-4.20;99.90;;;;;;5059101;28;20293;-60
2024/01/10 09:20:32;;;;;;;16.55;11.70;;;-4.10;99.90;;;;;;5050821;28;20280;-61
2024/01/10 09:23:00;;;;;;;12.95;9.75;;;-3.90;99.90;;;;;;5051393;28;20285;-59
2024/01/10 09:25:26;;;;;;;10.02;9.02;;;-3.80;99.90;;;;;;5051365;28;20556;-59
2024/01/10 09:27:54;;;;;;;14.73;8.60;;;-3.70;99.90;;;;;;5051143;28;20195;-60
2024/01/10 09:30:21;;;;;;;15.13;10.77;;;-3.50;99.90;;;;;;5056774;28;20221;-60
2024/01/10 09:32:48;;;;;;;16.90;9.95;;;-3.40;99.90;;;;;;5044549;28;20289;-60
2024/01/10 09:35:17;;;;;;;13.93;9.07;;;-3.20;99.90;;;;;;5046364;28;20297;-60
2024/01/10 09:37:45;;;;;;;15.43;9.35;;;-3.00;99.90;;;;;;5049352;28;20218;-60
2024/01/10 09:40:16;;;;;;;10.15;8.55;;;-2.80;99.90;;;;;;5046774;28;20226;-58
2024/01/10 09:42:44;;;;;;;13.05;9.65;;;-2.60;99.90;;;;;;5050694;28;20207;-61
2024/01/10 09:45:12;;;;;;;12.43;10.18;;;-2.40;99.90;;;;;;5050479;28;20569;-59
2024/01/10 09:47:42;;;;;;;12.32;10.10;;;-2.30;99.90;;;;;;5050460;28;20203;-60
2024/01/10 09:50:11;;;;;;;13.20;10.57;;;-2.20;99.90;;;;;;5040092;28;20230;-61
2024/01/10 09:52:46;;;;;;;13.27;9.90;;;-2.10;99.90;;;;;;5053277;28;20207;-60
2024/01/10 09:55:14;;;;;;;12.85;8.95;;;-2.00;99.90;;;;;;5054325;28;20212;-59
2024/01/10 09:57:41;;;;;;;17.83;9.55;;;-1.80;99.70;;;;;;5052326;28;20227;-61
2024/01/10 10:00:11;;;;;;;12.60;9.43;;;-1.80;98.70;;;;;;5046210;28;20305;-61
2024/01/10 10:02:39;;;;;;;12.93;9.73;;;-1.70;98.60;;;;;;5048990;28;20691;-60
2024/01/10 10:05:13;;;;;;;17.38;10.40;;;-1.60;98.40;;;;;;5048383;28;20206;-60
2024/01/10 10:07:50;;;;;;;11.60;9.45;;;-1.50;98.50;;;;;;5060302;28;20208;-60
2024/01/10 10:10:17;;;;;;;11.10;8.20;;;-1.40;97.50;;;;;;5053770;28;20308;-58
2024/01/10 10:12:46;;;;;;;15.32;9.52;;;-1.30;97.20;;;;;;5060929;28;20202;-57
2024/01/10 10:15:14;;;;;;;11.25;10.25;;;-1.20;97.20;;;;;;5063250;28;20415;-60
2024/01/10 10:17:46;;;;;;;12.68;10.43;;;-1.20;97.20;;;;;;5056838;28;20308;-59
2024/01/10 10:20:20;;;;;;;12.25;7.60;;;-1.10;96.90;;;;;;5064960;28;20438;-59
2024/01/10 10:23:01;;;;;;;22.05;10.35;;;-1.10;97.00;;;;;;5056813;28;20293;-58
2024/01/10 10:25:30;;;;;;;13.68;8.35;;;-1.00;97.00;;;;;;5058064;28;20213;-58
2024/01/10 10:27:57;;;;;;;14.60;10.13;;;-1.00;96.40;;;;;;5047818;28;20587;-59
2024/01/10 10:30:24;;;;;;;13.35;9.05;;;-1.00;96.70;;;;;;5064022;28;20770;-59
2024/01/10 10:32:51;;;;;;;13.43;9.52;;;-0.90;96.50;;;;;;5062941;28;20641;-60
2024/01/10 10:35:20;;;;;;;11.13;9.10;;;-0.90;96.60;;;;;;5052419;28;20298;-60
2024/01/10 10:37:48;;;;;;;11.95;10.75;;;-0.80;96.70;;;;;;5066901;28;20316;-57
2024/01/10 10:40:16;;;;;;;11.18;9.15;;;-0.80;96.30;;;;;;5051806;28;20750;-61
2024/01/10 10:42:46;;;;;;;11.10;8.68;;;-0.60;96.40;;;;;;5048355;28;20209;-60
2024/01/10 10:45:16;;;;;;;13.63;9.68;;;-0.50;96.90;;;;;;5041752;28;20221;-60
2024/01/10 10:47:45;;;;;;;17.88;10.57;;;-0.40;96.20;;;;;;5049793;28;20581;-60
2024/01/10 10:50:16;;;;;;;10.90;9.77;;;-0.20;95.60;;;;;;5045797;28;20229;-58
2024/01/10 10:52:47;;;;;;;10.88;9.30;;;0.00;95.70;;;;;;5042540;28;20294;-62
2024/01/10 10:55:17;;;;;;;12.73;10.98;;;0.20;95.60;;;;;;5049137;28;20206;-59
2024/01/10 10:57:46;;;;;;;10.88;7.70;;;0.40;95.40;;;;;;5049184;28;20225;-59
2024/01/10 11:00:16;;;;;;;14.15;9.80;;;0.60;94.60;;;;;;5050678;28;20222;-61
2024/01/10 11:02:43;;;;;;;11.02;9.07;;;0.80;94.40;;;;;;5051811;28;20207;-59
2024/01/10 11:05:10;;;;;;;16.05;10.80;;;1.00;93.90;;;;;;5051202;28;20203;-61
2024/01/10 11:07:38;;;;;;;18.40;11.43;;;1.10;93.60;;;;;;5042908;28;20866;-61
2024/01/10 11:10:09;;;;;;;11.20;8.57;;;1.30;92.80;;;;;;5043704;28;20219;-59
2024/01/10 11:13:06;;;;;;;9.88;8.60;;;1.30;92.20;;;;;;5037981;28;20294;-59
2024/01/10 11:15:59;;;;;;;10.90;8.45;;;1.50;92.20;;;;;;5048309;28;20257;-62
2024/01/10 11:18:46;;;;;;;9.65;8.60;;;1.50;92.00;;;;;;5036891;28;20202;-60
2024/01/10 11:21:25;;;;;;;11.18;9.85;;;1.60;91.70;;;;;;5044971;28;20657;-61
2024/01/10 11:23:55;;;;;;;10.90;8.73;;;1.70;91.70;;;;;;5049458;28;20236;-58
2024/01/10 11:26:22;;;;;;;16.53;12.50;;;1.70;91.40;;;;;;5041716;28;20497;-59
2024/01/10 11:28:51;;;;;;;15.93;11.25;;;1.80;91.50;;;;;;5045539;28;20478;-59
2024/01/10 11:31:29;;;;;;;16.20;11.68;;;2.00;91.10;;;;;;5045594;28;20289;-58
2024/01/10 11:33:57;;;;;;;13.45;11.75;;;2.00;91.10;;;;;;5045796;28;20198;-59
2024/01/10 11:36:25;;;;;;;13.35;10.50;;;2.00;90.80;;;;;;5048693;28;20351;-61
2024/01/10 11:38:56;;;;;;;10.40;9.25;;;2.00;90.80;;;;;;5051471;28;20202;-59
2024/01/10 11:41:25;;;;;;;10.63;9.55;;;1.90;90.10;;;;;;5050275;28;20299;-58
2024/01/10 11:44:39;;;;;;;11.88;9.80;;;1.80;90.80;;;;;;5047622;28;20283;-60
2024/01/10 11:47:09;;;;;;;13.73;9.82;;;1.80;89.80;;;;;;5051327;28;20279;-62
2024/01/10 11:49:35;;;;;;;13.70;11.52;;;1.60;91.00;;;;;;5050707;28;20226;-59
2024/01/10 11:52:03;;;;;;;13.65;12.25;;;1.60;91.20;;;;;;5051202;28;20230;-58
2024/01/10 11:54:41;;;;;;;10.80;9.65;;;1.50;90.60;;;;;;5050701;28;20695;-60
2024/01/10 11:57:16;;;;;;;13.75;9.93;;;1.50;90.70;;;;;;5047179;28;20584;-59
2024/01/10 11:59:45;;;;;;;14.68;11.15;;;1.40;91.10;;;;;;5046648;28;20827;-60
2024/01/10 12:02:14;;;;;;;15.40;10.15;;;1.40;91.50;;;;;;5051436;28;20198;-59
2024/01/10 12:04:42;;;;;;;11.45;9.95;;;1.40;91.40;;;;;;5046381;28;20297;-58
2024/01/10 12:07:09;;;;;;;13.48;10.10;;;1.40;91.00;;;;;;5043873;28;20206;-60
2024/01/10 12:09:36;;;;;;;16.23;12.13;;;1.50;91.10;;;;;;5049528;28;20218;-59
2024/01/10 12:12:03;;;;;;;14.45;8.63;;;1.40;91.20;;;;;;5050855;28;20230;-60
2024/01/10 12:14:30;;;;;;;11.75;10.05;;;1.50;91.80;;;;;;5047437;28;20214;-59
2024/01/10 12:16:58;;;;;;;14.48;10.45;;;1.60;92.60;;;;;;5047212;28;20226;-58
2024/01/10 12:19:26;;;;;;;16.60;10.55;;;1.80;92.40;;;;;;5048080;28;20230;-60
2024/01/10 12:21:53;;;;;;;13.63;9.48;;;2.00;91.60;;;;;;5043964;28;20290;-58
2024/01/10 12:24:20;;;;;;;12.07;10.68;;;2.30;91.70;;;;;;5037350;28;20656;-58
2024/01/10 12:26:48;;;;;;;14.85;10.52;;;2.50;91.20;;;;;;5049388;28;20207;-59
2024/01/10 12:29:19;;;;;;;14.07;11.20;;;2.80;92.00;;;;;;5049980;28;20748;-59
2024/01/10 12:31:47;;;;;;;16.55;10.32;;;3.10;90.00;;;;;;5044671;28;20202;-60
2024/01/10 12:34:14;;;;;;;14.30;11.32;;;3.30;90.70;;;;;;5050258;28;20210;-59
2024/01/10 12:36:42;;;;;;;14.52;10.73;;;3.70;90.30;;;;;;5050890;28;20203;-60
2024/01/10 12:39:10;;;;;;;14.95;10.75;;;3.90;90.00;;;;;;5046502;28;20740;-60